createdAt,value
2023-05-22T00:01:19.536Z,5.25
2023-05-22T00:04:03.139Z,5.30
2023-05-22T00:06:35.874Z,5.15
2023-05-22T00:09:18.001Z,5.47
2023-05-22T00:12:03.194Z,5.45
2023-05-22T00:14:35.782Z,6.03
2023-05-22T00:17:18.722Z,6.45
2023-05-22T00:19:51.681Z,6.62
2023-05-22T00:22:35.584Z,6.87
2023-05-22T00:25:20.481Z,7.08
2023-05-22T00:28:06.167Z,7.08
2023-05-22T00:30:38.977Z,5.87
2023-05-22T00:33:23.972Z,8.35
2023-05-22T00:35:56.582Z,6.53
2023-05-22T00:38:38.709Z,6.90
2023-05-22T00:41:23.076Z,7.25
2023-05-22T00:43:55.804Z,6.92
2023-05-22T00:46:40.008Z,6.83
2023-05-22T00:49:12.606Z,7.60
2023-05-22T00:51:57.071Z,7.08
2023-05-22T00:54:45.381Z,7.15
2023-05-22T00:57:28.387Z,7.35
2023-05-22T01:00:01.718Z,7.03
2023-05-22T01:02:44.251Z,7.37
2023-05-22T01:05:18.468Z,7.90
2023-05-22T01:08:02.228Z,7.05
2023-05-22T01:10:44.536Z,7.78
2023-05-22T01:13:39.637Z,6.87
2023-05-22T01:16:28.654Z,7.17
2023-05-22T01:19:31.979Z,7.20
2023-05-22T01:22:28.329Z,7.85
2023-05-22T01:25:38.641Z,8.00
2023-05-22T01:28:41.304Z,8.85
2023-05-22T01:31:16.669Z,7.60
2023-05-22T01:34:03.181Z,8.63
2023-05-22T01:36:38.027Z,8.95
2023-05-22T01:39:22.582Z,10.00
2023-05-22T01:41:57.431Z,7.37
2023-05-22T01:44:43.057Z,8.63
2023-05-22T01:47:15.587Z,7.60
2023-05-22T01:49:57.837Z,8.28
2023-05-22T01:53:01.835Z,8.20
2023-05-22T01:55:50.558Z,8.03
2023-05-22T01:58:52.750Z,7.67
2023-05-22T02:01:37.606Z,7.33
2023-05-22T02:04:22.711Z,7.37
2023-05-22T02:07:05.717Z,7.97
2023-05-22T02:09:48.890Z,7.92
2023-05-22T02:12:34.902Z,8.53
2023-05-22T02:15:09.889Z,9.03
2023-05-22T02:17:53.553Z,9.65
2023-05-22T02:20:26.228Z,9.38
2023-05-22T02:23:08.246Z,8.43
2023-05-22T02:25:50.488Z,8.73
2023-05-22T02:28:23.357Z,8.90
2023-05-22T02:31:07.404Z,8.63
2023-05-22T02:33:40.040Z,9.50
2023-05-22T02:36:23.416Z,8.83
2023-05-22T02:38:56.242Z,9.65
2023-05-22T02:41:39.790Z,8.08
2023-05-22T02:44:23.751Z,8.80
2023-05-22T02:46:56.708Z,8.78
2023-05-22T02:49:41.182Z,8.25
2023-05-22T02:52:25.586Z,7.62
2023-05-22T02:54:58.112Z,7.33
2023-05-22T02:57:40.292Z,7.45
2023-05-22T03:00:13.883Z,7.95
2023-05-22T03:02:56.169Z,7.67
2023-05-22T03:05:40.436Z,7.90
2023-05-22T03:08:23.627Z,7.85
2023-05-22T03:11:08.761Z,6.92
2023-05-22T03:13:41.492Z,7.50
2023-05-22T03:16:27.071Z,7.40
2023-05-22T03:19:11.757Z,8.27
2023-05-22T03:21:55.741Z,8.20
2023-05-22T03:24:28.694Z,9.08
2023-05-22T03:27:15.597Z,9.45
2023-05-22T03:29:48.271Z,8.75
2023-05-22T03:32:30.708Z,9.28
2023-05-22T03:35:04.086Z,8.55
2023-05-22T03:37:46.492Z,7.67
2023-05-22T03:40:29.277Z,8.70
2023-05-22T03:43:02.076Z,8.53
2023-05-22T03:45:44.472Z,9.23
2023-05-22T03:48:17.135Z,8.78
2023-05-22T03:51:01.345Z,9.28
2023-05-22T03:53:33.812Z,9.73
2023-05-22T03:56:17.588Z,8.50
2023-05-22T03:58:52.178Z,8.65
2023-05-22T04:01:37.332Z,8.45
2023-05-22T04:04:12.434Z,10.10
2023-05-22T04:06:57.635Z,10.35
2023-05-22T04:09:32.880Z,10.03
2023-05-22T04:12:14.912Z,9.78
2023-05-22T04:14:58.536Z,10.20
2023-05-22T04:17:34.558Z,10.72
2023-05-22T04:20:22.400Z,9.73
2023-05-22T04:25:27.315Z,9.63
2023-05-22T04:28:10.991Z,9.38
2023-05-22T04:30:45.517Z,9.63
2023-05-22T04:33:29.111Z,10.08
2023-05-22T04:36:03.034Z,9.93
2023-05-22T04:38:46.950Z,9.28
2023-05-22T04:41:21.233Z,8.88
2023-05-22T04:44:07.091Z,9.13
2023-05-22T04:46:40.788Z,9.18
2023-05-22T04:49:24.429Z,9.20
2023-05-22T04:51:59.209Z,9.00
2023-05-22T04:54:45.982Z,9.58
2023-05-22T04:59:51.311Z,9.53
2023-05-22T05:02:34.998Z,10.58
2023-05-22T05:05:18.929Z,15.05
2023-05-22T05:08:02.982Z,10.18
2023-05-22T05:10:35.873Z,9.90
2023-05-22T05:13:08.780Z,11.12
2023-05-22T05:15:52.716Z,11.43
2023-05-22T05:18:25.851Z,10.70
2023-05-22T05:21:07.894Z,11.93
2023-05-22T05:23:40.469Z,11.53
2023-05-22T05:26:27.409Z,12.15
2023-05-22T05:29:12.878Z,11.90
2023-05-22T05:31:59.760Z,12.47
2023-05-22T05:34:47.971Z,15.30
2023-05-22T05:37:47.360Z,14.03
2023-05-22T05:40:20.509Z,13.60
2023-05-22T05:43:09.355Z,18.00
2023-05-22T05:45:55.633Z,15.80
2023-05-22T05:48:28.730Z,14.07
2023-05-22T05:51:12.344Z,14.78
2023-05-22T05:53:58.190Z,17.98
2023-05-22T05:56:32.003Z,15.50
2023-05-22T05:59:16.234Z,16.65
2023-05-22T06:02:14.896Z,17.02
2023-05-22T06:04:50.518Z,17.70
2023-05-22T06:07:36.714Z,20.30
2023-05-22T06:12:52.891Z,17.92
2023-05-22T06:15:26.476Z,18.65
2023-05-22T06:18:12.628Z,17.12
2023-05-22T06:20:45.062Z,18.45
2023-05-22T06:23:29.277Z,18.15
2023-05-22T06:26:31.212Z,15.78
2023-05-22T06:29:03.943Z,15.98
2023-05-22T06:31:48.882Z,15.88
2023-05-22T06:36:55.160Z,15.65
2023-05-22T06:39:43.596Z,16.20
2023-05-22T06:42:30.571Z,16.25
2023-05-22T06:45:19.306Z,14.75
2023-05-22T06:48:05.088Z,13.32
2023-05-22T06:50:39.670Z,13.75
2023-05-22T06:53:23.518Z,12.47
2023-05-22T06:56:07.715Z,13.48
2023-05-22T06:59:00.701Z,13.30
2023-05-22T07:01:38.316Z,12.93
2023-05-22T07:04:24.390Z,16.35
2023-05-22T07:07:11.696Z,16.90
2023-05-22T07:09:44.737Z,12.60
2023-05-22T07:12:30.597Z,12.88
2023-05-22T07:15:03.381Z,13.05
2023-05-22T07:17:47.411Z,10.30
2023-05-22T07:20:20.081Z,11.50
2023-05-22T07:23:11.559Z,10.58
2023-05-22T07:25:44.665Z,11.55
2023-05-22T07:28:28.318Z,13.22
2023-05-22T07:31:16.851Z,9.58
2023-05-22T07:33:50.465Z,9.10
2023-05-22T07:36:35.743Z,10.00
2023-05-22T07:39:10.067Z,11.68
2023-05-22T07:41:57.233Z,9.58
2023-05-22T07:44:31.802Z,10.25
2023-05-22T07:47:17.700Z,10.30
2023-05-22T07:49:50.450Z,9.85
2023-05-22T07:52:36.619Z,9.03
2023-05-22T07:55:19.040Z,8.85
2023-05-22T07:58:04.392Z,10.05
2023-05-22T08:00:38.806Z,9.28
2023-05-22T08:03:24.166Z,9.53
2023-05-22T08:06:09.031Z,8.85
2023-05-22T08:08:55.485Z,7.90
2023-05-22T08:11:28.223Z,9.23
2023-05-22T08:14:12.772Z,9.45
2023-05-22T08:16:45.543Z,9.15
2023-05-22T08:19:28.012Z,8.85
2023-05-22T08:22:01.234Z,10.70
2023-05-22T08:24:44.892Z,8.63
2023-05-22T08:27:18.098Z,8.53
2023-05-22T08:30:04.695Z,9.00
2023-05-22T08:32:39.032Z,7.17
2023-05-22T08:35:22.948Z,8.40
2023-05-22T08:37:55.761Z,9.10
2023-05-22T08:40:42.576Z,12.00
2023-05-22T08:43:25.908Z,15.35
2023-05-22T08:46:01.269Z,8.78
2023-05-22T08:48:43.422Z,8.80
2023-05-22T08:51:32.224Z,8.88
2023-05-22T08:54:07.858Z,6.47
2023-05-22T08:56:56.599Z,6.90
2023-05-22T08:59:27.830Z,6.70
2023-05-22T09:02:14.120Z,6.83
2023-05-22T09:04:47.073Z,6.50
2023-05-22T09:07:31.110Z,6.10
2023-05-22T09:10:05.544Z,6.25
2023-05-22T09:12:37.891Z,4.70
2023-05-22T09:15:21.442Z,6.22
2023-05-22T09:17:53.970Z,5.22
2023-05-22T09:20:39.863Z,4.70
2023-05-22T09:23:18.044Z,5.15
2023-05-22T09:26:01.743Z,5.20
2023-05-22T09:28:38.763Z,4.45
2023-05-22T09:31:11.343Z,4.85
2023-05-22T09:34:00.046Z,5.05
2023-05-22T09:36:43.604Z,3.98
2023-05-22T09:39:16.339Z,4.75
2023-05-22T09:42:02.793Z,8.28
2023-05-22T09:47:19.688Z,5.20
2023-05-22T09:50:07.537Z,4.37
2023-05-22T09:52:53.080Z,5.03
2023-05-22T09:55:26.693Z,4.10
2023-05-22T09:58:13.044Z,4.50
2023-05-22T10:00:46.584Z,5.30
2023-05-22T10:03:34.780Z,4.37
2023-05-22T10:06:09.436Z,4.30
2023-05-22T10:08:47.229Z,5.15
2023-05-22T10:11:33.395Z,5.65
2023-05-22T10:14:07.930Z,5.05
2023-05-22T10:16:52.956Z,5.00
2023-05-22T10:19:41.673Z,4.17
2023-05-22T10:22:16.990Z,3.00
2023-05-22T10:25:01.756Z,4.37
2023-05-22T10:27:34.621Z,3.90
2023-05-22T10:30:22.311Z,4.53
2023-05-22T10:33:20.712Z,4.40
2023-05-22T10:36:05.541Z,4.30
2023-05-22T10:39:07.547Z,4.58
2023-05-22T10:41:41.287Z,4.42
2023-05-22T10:44:26.593Z,4.30
2023-05-22T10:46:59.554Z,4.45
2023-05-22T10:49:49.929Z,20.00
2023-05-22T10:52:24.618Z,4.10
2023-05-22T10:55:11.471Z,4.22
2023-05-22T10:57:44.124Z,3.80
2023-05-22T11:00:30.734Z,4.45
2023-05-22T11:03:17.770Z,5.28
2023-05-22T11:05:55.098Z,4.00
2023-05-22T11:08:39.453Z,4.28
2023-05-22T11:11:27.912Z,4.20
2023-05-22T11:14:04.483Z,5.10
2023-05-22T11:16:49.388Z,4.40
2023-05-22T11:19:24.313Z,4.20
2023-05-22T11:22:08.737Z,4.10
2023-05-22T11:24:42.204Z,4.50
2023-05-22T11:27:26.353Z,4.28
2023-05-22T11:30:01.250Z,3.85
2023-05-22T11:32:48.369Z,4.65
2023-05-22T11:35:22.952Z,3.92
2023-05-22T11:38:07.540Z,4.72
2023-05-22T11:40:40.480Z,3.95
2023-05-22T11:43:36.580Z,3.98
2023-05-22T11:46:11.319Z,4.50
2023-05-22T11:48:56.275Z,4.90
2023-05-22T11:51:30.397Z,4.47
2023-05-22T11:54:14.860Z,4.37
2023-05-22T11:56:48.914Z,4.90
2023-05-22T11:59:31.625Z,4.72
2023-05-22T12:02:04.351Z,4.15
2023-05-22T12:04:38.604Z,3.87
2023-05-22T12:09:44.196Z,3.70
2023-05-22T12:12:28.676Z,4.15
2023-05-22T12:15:14.015Z,4.35
2023-05-22T12:17:59.202Z,3.87
2023-05-22T12:20:45.866Z,4.42
2023-05-22T12:23:26.446Z,4.65
2023-05-22T12:26:13.793Z,4.28
2023-05-22T12:28:46.738Z,4.08
2023-05-22T12:31:31.928Z,3.45
2023-05-22T12:34:07.838Z,3.20
2023-05-22T12:36:49.964Z,4.25
2023-05-22T12:39:22.629Z,3.90
2023-05-22T12:42:06.601Z,3.30
2023-05-22T12:44:40.841Z,3.72
2023-05-22T12:47:25.675Z,3.77
2023-05-22T12:50:10.402Z,3.77
2023-05-22T12:52:54.171Z,3.80
2023-05-22T12:55:36.752Z,3.70
2023-05-22T12:58:09.899Z,3.52
2023-05-22T13:00:53.618Z,4.80
2023-05-22T13:03:37.773Z,4.40
2023-05-22T13:06:10.588Z,10.30
2023-05-22T13:08:54.320Z,8.65
2023-05-22T13:11:27.039Z,3.77
2023-05-22T13:14:10.613Z,7.65
2023-05-22T13:16:43.132Z,15.95
2023-05-22T13:19:27.703Z,3.83
2023-05-22T13:22:00.771Z,3.33
2023-05-22T13:24:42.961Z,6.03
2023-05-22T13:27:18.159Z,4.20
2023-05-22T13:30:00.392Z,3.87
2023-05-22T13:32:38.040Z,4.12
2023-05-22T13:35:21.863Z,3.30
2023-05-22T13:37:54.682Z,4.22
2023-05-22T13:40:38.209Z,5.60
2023-05-22T13:43:11.240Z,4.15
2023-05-22T13:45:53.348Z,3.20
2023-05-22T13:48:25.817Z,4.42
2023-05-22T13:50:58.316Z,4.03
2023-05-22T13:53:42.013Z,4.20
2023-05-22T13:56:14.654Z,4.47
2023-05-22T13:58:58.892Z,4.95
2023-05-22T14:01:31.676Z,3.40
2023-05-22T14:04:16.950Z,3.47
2023-05-22T14:06:49.937Z,4.12
2023-05-22T14:09:33.755Z,4.10
2023-05-22T14:12:06.530Z,4.12
2023-05-22T14:14:50.199Z,3.37
2023-05-22T14:17:22.794Z,3.67
2023-05-22T14:20:05.509Z,5.65
2023-05-22T14:22:52.814Z,4.25
2023-05-22T14:25:23.739Z,4.60
2023-05-22T14:28:07.834Z,4.67
2023-05-22T14:30:41.113Z,4.50
2023-05-22T14:33:23.611Z,3.45
2023-05-22T14:35:56.207Z,4.20
2023-05-22T14:38:38.751Z,5.03
2023-05-22T14:41:22.212Z,4.35
2023-05-22T14:44:04.306Z,4.72
2023-05-22T14:46:37.182Z,3.17
2023-05-22T14:49:21.538Z,2.95
2023-05-22T14:51:54.913Z,3.17
2023-05-22T14:54:37.296Z,2.45
2023-05-22T14:57:21.081Z,2.92
2023-05-22T14:59:54.281Z,2.60
2023-05-22T15:02:39.363Z,3.52
2023-05-22T15:05:12.557Z,4.15
2023-05-22T15:07:58.708Z,3.10
2023-05-22T15:10:42.938Z,2.70
2023-05-22T15:13:15.767Z,4.35
2023-05-22T15:15:58.614Z,3.12
2023-05-22T15:18:31.336Z,2.85
2023-05-22T15:21:15.598Z,3.92
2023-05-22T15:24:00.819Z,2.40
2023-05-22T15:26:33.354Z,3.17
2023-05-22T15:29:15.606Z,3.17
2023-05-22T15:31:48.264Z,2.60
2023-05-22T15:34:31.112Z,2.83
2023-05-22T15:37:03.828Z,3.80
2023-05-22T15:39:48.754Z,2.87
2023-05-22T15:42:33.906Z,5.10
2023-05-22T15:45:07.072Z,4.80
2023-05-22T15:47:49.363Z,4.80
2023-05-22T15:50:36.421Z,4.50
2023-05-22T15:53:09.189Z,4.33
2023-05-22T15:55:51.856Z,4.90
2023-05-22T15:58:24.431Z,3.83
2023-05-22T16:01:08.393Z,4.33
2023-05-22T16:03:41.325Z,4.12
2023-05-22T16:06:25.605Z,3.83
2023-05-22T16:08:58.160Z,2.90
2023-05-22T16:11:42.264Z,2.87
2023-05-22T16:14:15.164Z,2.55
2023-05-22T16:16:58.309Z,2.02
2023-05-22T16:19:32.647Z,2.05
2023-05-22T16:22:15.928Z,1.40
2023-05-22T16:24:58.805Z,2.25
2023-05-22T16:27:44.422Z,2.15
2023-05-22T16:30:18.479Z,2.00
2023-05-22T16:33:03.990Z,1.92
2023-05-22T16:35:47.962Z,2.22
2023-05-22T16:38:20.851Z,2.20
2023-05-22T16:41:03.111Z,2.05
2023-05-22T16:43:48.516Z,1.70
2023-05-22T16:46:21.353Z,2.08
2023-05-22T16:49:05.186Z,2.05
2023-05-22T16:51:49.324Z,2.65
2023-05-22T16:54:21.846Z,1.85
2023-05-22T16:57:07.665Z,2.00
2023-05-22T16:59:41.374Z,3.00
2023-05-22T17:02:25.089Z,2.12
2023-05-22T17:04:57.809Z,2.87
2023-05-22T17:07:40.002Z,3.08
2023-05-22T17:10:22.213Z,2.83
2023-05-22T17:12:55.074Z,4.33
2023-05-22T17:15:38.925Z,5.00
2023-05-22T17:18:24.330Z,4.90
2023-05-22T17:20:57.641Z,3.40
2023-05-22T17:23:41.421Z,3.95
2023-05-22T17:26:25.254Z,3.25
2023-05-22T17:28:57.713Z,3.10
2023-05-22T17:32:01.278Z,3.90
2023-05-22T17:34:43.281Z,3.58
2023-05-22T17:37:16.125Z,4.22
2023-05-22T17:39:58.279Z,3.83
2023-05-22T17:42:42.334Z,3.80
2023-05-22T17:45:26.327Z,4.45
2023-05-22T17:47:58.923Z,4.58
2023-05-22T17:50:44.269Z,4.62
2023-05-22T17:53:23.280Z,5.47
2023-05-22T17:56:07.391Z,4.10
2023-05-22T17:58:40.048Z,4.12
2023-05-22T18:01:23.874Z,3.87
2023-05-22T18:03:58.670Z,5.90
2023-05-22T18:06:40.923Z,4.90
2023-05-22T18:09:25.181Z,5.08
2023-05-22T18:11:58.981Z,5.35
2023-05-22T18:14:43.678Z,4.92
2023-05-22T18:17:16.036Z,5.17
2023-05-22T18:20:00.853Z,4.90
2023-05-22T18:22:33.581Z,3.70
2023-05-22T18:25:17.187Z,3.90
2023-05-22T18:28:00.799Z,4.62
2023-05-22T18:30:49.260Z,3.77
2023-05-22T18:33:33.655Z,4.30
2023-05-22T18:36:06.480Z,4.95
2023-05-22T18:38:50.071Z,5.40
2023-05-22T18:41:22.624Z,4.40
2023-05-22T18:44:05.282Z,4.53
2023-05-22T18:46:38.131Z,4.30
2023-05-22T18:49:22.265Z,4.28
2023-05-22T18:52:04.539Z,3.98
2023-05-22T18:54:37.293Z,3.70
2023-05-22T18:57:21.959Z,5.28
2023-05-22T19:00:04.517Z,4.35
2023-05-22T19:02:47.408Z,4.58
2023-05-22T19:05:30.241Z,5.03
2023-05-22T19:08:13.967Z,5.42
2023-05-22T19:11:00.172Z,4.37
2023-05-22T19:13:42.158Z,5.72
2023-05-22T19:16:15.497Z,4.83
2023-05-22T19:18:59.071Z,5.90
2023-05-22T19:21:32.675Z,4.92
2023-05-22T19:24:14.811Z,5.35
2023-05-22T19:26:47.526Z,5.85
2023-05-22T19:29:32.144Z,6.60
2023-05-22T19:32:04.610Z,6.42
2023-05-22T19:34:46.651Z,6.25
2023-05-22T19:37:28.630Z,5.87
2023-05-22T19:40:01.458Z,7.28
2023-05-22T19:42:44.968Z,11.25
2023-05-22T19:45:18.458Z,14.58
2023-05-22T19:48:02.502Z,14.18
2023-05-22T19:50:47.085Z,13.03
2023-05-22T19:53:29.288Z,10.58
2023-05-22T19:56:05.077Z,10.30
2023-05-22T19:58:48.828Z,8.78
2023-05-22T20:01:21.309Z,7.47
2023-05-22T20:04:05.698Z,7.47
2023-05-22T20:06:38.318Z,6.70
2023-05-22T20:09:27.473Z,6.92
2023-05-22T20:11:59.905Z,5.70
2023-05-22T20:14:43.618Z,5.95
2023-05-22T20:17:16.216Z,7.05
2023-05-22T20:20:00.205Z,6.60
2023-05-22T20:22:34.372Z,5.72
2023-05-22T20:25:19.717Z,5.90
2023-05-22T20:27:52.571Z,5.08
2023-05-22T20:30:36.483Z,4.62
2023-05-22T20:33:09.297Z,4.75
2023-05-22T20:35:53.302Z,5.30
2023-05-22T20:38:26.185Z,4.03
2023-05-22T20:41:29.468Z,4.83
2023-05-22T20:44:11.504Z,3.72
2023-05-22T20:46:44.030Z,3.58
2023-05-22T20:49:28.106Z,4.15
2023-05-22T20:52:00.651Z,3.12
2023-05-22T20:54:45.742Z,3.67
2023-05-22T20:57:29.309Z,5.03
2023-05-22T21:00:11.922Z,3.60
2023-05-22T21:02:44.713Z,4.42
2023-05-22T21:05:26.884Z,3.67
2023-05-22T21:07:59.709Z,3.50
2023-05-22T21:10:43.196Z,4.12
2023-05-22T21:13:15.675Z,3.75
2023-05-22T21:15:57.777Z,3.95
2023-05-22T21:18:39.757Z,3.47
2023-05-22T21:21:12.317Z,3.90
2023-05-22T21:23:55.889Z,3.98
2023-05-22T21:26:40.968Z,3.50
2023-05-22T21:29:13.374Z,4.25
2023-05-22T21:31:55.633Z,4.37
2023-05-22T21:34:28.197Z,3.87
2023-05-22T21:37:12.426Z,4.28
2023-05-22T21:39:56.353Z,3.77
2023-05-22T21:42:44.517Z,4.17
2023-05-22T21:45:14.732Z,4.30
2023-05-22T21:47:47.537Z,3.77
2023-05-22T21:50:31.819Z,4.42
2023-05-22T21:53:04.379Z,5.10
2023-05-22T21:55:48.994Z,4.67
2023-05-22T21:58:21.482Z,4.60
2023-05-22T22:01:05.139Z,4.75
2023-05-22T22:03:39.082Z,4.67
2023-05-22T22:06:21.216Z,4.95
2023-05-22T22:08:53.754Z,4.67
2023-05-22T22:11:37.629Z,4.87
2023-05-22T22:14:10.094Z,6.28
2023-05-22T22:16:57.029Z,5.33
2023-05-22T22:19:42.008Z,6.05
2023-05-22T22:22:14.732Z,4.65
2023-05-22T22:24:57.115Z,4.25
2023-05-22T22:27:30.262Z,4.30
2023-05-22T22:30:12.855Z,4.33
2023-05-22T22:32:48.169Z,4.50
2023-05-22T22:35:31.505Z,5.53
2023-05-22T22:38:04.302Z,5.30
2023-05-22T22:40:46.602Z,4.97
2023-05-22T22:43:19.159Z,4.83
2023-05-22T22:46:03.707Z,4.87
2023-05-22T22:48:36.785Z,5.78
2023-05-22T22:51:21.626Z,5.12
2023-05-22T22:54:06.120Z,4.40
2023-05-22T22:56:39.130Z,5.58
2023-05-22T22:59:23.267Z,4.62
2023-05-22T23:01:56.148Z,4.45
2023-05-22T23:04:41.538Z,5.83
2023-05-22T23:07:26.293Z,5.87
2023-05-22T23:09:59.219Z,4.95
2023-05-22T23:12:35.202Z,5.58
2023-05-22T23:15:19.217Z,5.80
2023-05-22T23:17:52.434Z,5.90
2023-05-22T23:20:36.253Z,5.40
2023-05-22T23:23:20.469Z,5.55
2023-05-22T23:26:04.307Z,5.00
2023-05-22T23:28:37.473Z,5.53
2023-05-22T23:31:19.876Z,4.70
2023-05-22T23:33:56.343Z,6.10
2023-05-22T23:36:39.934Z,6.28
2023-05-22T23:39:12.556Z,5.30
2023-05-22T23:41:55.067Z,5.53
2023-05-22T23:44:27.880Z,5.72
2023-05-22T23:47:11.681Z,5.35
2023-05-22T23:49:44.373Z,4.78
2023-05-22T23:52:27.053Z,6.15
2023-05-22T23:54:59.887Z,5.15
2023-05-22T23:57:43.511Z,5.20
